Terminal Aerodrome Forecast
Issued by NWS Wichita, KS

Home | Current Version | Previous Version | Text Only | Print | Product List | Glossary Off
Versions: 1 2 3 4 5 6 7 8 9 10 11 12 13 14 15 16 17 18 19

000
FTUS43 KICT 281057 AAB
TAFICT
TAF AMD
KICT 281057Z 2811/2906 24006KT P6SM BKN008
     FM281500 28008KT P6SM SCT040
     FM290300 14004KT P6SM SKC=

USA.gov is the U.S. government's official web portal to all federal, state and local government web resources and services.